Time;durP1;ratioP1;P1;durP2;ratioP2;P2;SDS_P1;SDS_P2;PMS_P1;PMS_P2;Temp;Humidity;BMP_temperature;BMP_pressure;BME280_temperature;BME280_humidity;BME280_pressure;Samples;Min_cycle;Max_cycle;Signal;HPM_P1;HPM_P2
2023/04/02 00:01:37;;;;;;;4.05;1.50;;;;;;;1.54;90.20;101585.25;5055826;28;20270;-43
2023/04/02 00:04:13;;;;;;;1.70;0.80;;;;;;;1.63;90.34;101572.13;5041113;28;20188;-44
2023/04/02 00:06:43;;;;;;;1.58;1.08;;;;;;;1.68;90.39;101587.16;5055259;28;20222;-42
2023/04/02 00:09:11;;;;;;;2.15;0.90;;;;;;;1.73;89.93;101593.34;5058054;28;20205;-45
2023/04/02 00:11:40;;;;;;;2.65;1.10;;;;;;;1.73;89.74;101601.28;5052595;28;20569;-42
2023/04/02 00:14:26;;;;;;;2.72;1.40;;;;;;;1.76;89.98;101610.13;5048816;28;20275;-45
2023/04/02 00:16:54;;;;;;;3.55;1.30;;;;;;;1.77;90.07;101605.72;5064504;28;20191;-44
2023/04/02 00:19:48;;;;;;;5.15;1.10;;;;;;;1.76;90.01;101604.84;5056815;28;20191;-43
2023/04/02 00:22:24;;;;;;;3.78;1.50;;;;;;;1.75;89.97;101610.09;5048508;28;20176;-47
2023/04/02 00:24:52;;;;;;;2.85;1.20;;;;;;;1.73;89.91;101619.78;5041552;28;20658;-44
2023/04/02 00:27:19;;;;;;;2.53;1.20;;;;;;;1.75;89.56;101620.69;5059125;28;20186;-45
2023/04/02 00:29:53;;;;;;;3.22;1.20;;;;;;;1.64;90.01;101626.75;5070626;28;20175;-46
2023/04/02 00:32:31;;;;;;;2.45;0.85;;;;;;;1.71;89.64;101618.91;5071612;28;20386;-46
2023/04/02 00:34:58;;;;;;;3.22;0.95;;;;;;;1.62;89.48;101623.22;5070083;28;20173;-44
2023/04/02 00:37:27;;;;;;;1.83;0.80;;;;;;;1.57;89.44;101635.44;5071414;28;20225;-49
2023/04/02 00:40:08;;;;;;;2.70;0.80;;;;;;;1.67;88.10;101619.72;5071156;28;20166;-46
2023/04/02 00:42:37;;;;;;;2.05;0.70;;;;;;;1.64;87.10;101633.78;5070158;28;20375;-45
2023/04/02 00:45:03;;;;;;;2.13;0.80;;;;;;;1.68;86.01;101609.16;5071287;28;20170;-43
2023/04/02 00:47:37;;;;;;;2.30;0.63;;;;;;;1.61;84.95;101602.94;5071002;28;20202;-47
2023/04/02 00:50:18;;;;;;;0.95;0.70;;;;;;;1.61;84.65;101594.13;5071246;28;20171;-47
2023/04/02 00:52:47;;;;;;;2.40;0.80;;;;;;;1.65;84.24;101615.31;5069260;28;20182;-46
2023/04/02 00:55:37;;;;;;;2.28;0.70;;;;;;;1.63;84.30;101598.53;5069970;28;20540;-47
2023/04/02 00:58:12;;;;;;;3.85;1.13;;;;;;;1.57;84.70;101606.41;5071152;28;20633;-47
2023/04/02 01:00:37;;;;;;;2.15;1.05;;;;;;;1.53;84.82;101623.09;5069725;28;20293;-48
2023/04/02 01:03:15;;;;;;;0.73;0.60;;;;;;;1.63;85.47;101637.28;5071145;28;20254;-47
2023/04/02 01:05:50;;;;;;;4.03;0.90;;;;;;;1.67;85.52;101638.22;5059496;28;20625;-47
2023/04/02 01:08:42;;;;;;;2.65;0.80;;;;;;;1.44;86.22;101638.81;5052544;28;20183;-48
2023/04/02 01:11:43;;;;;;;2.80;1.00;;;;;;;1.44;86.72;101654.66;5049655;28;20198;-47
2023/04/02 01:14:36;;;;;;;3.08;0.77;;;;;;;1.44;86.92;101660.84;4998414;28;20179;-46
2023/04/02 01:17:17;;;;;;;3.53;0.93;;;;;;;1.47;87.28;101654.72;5032607;28;20220;-47
2023/04/02 01:20:24;;;;;;;2.17;0.60;;;;;;;1.40;87.37;101658.13;5057222;28;20540;-47
2023/04/02 01:22:49;;;;;;;4.22;0.63;;;;;;;1.37;87.56;101672.19;4982579;28;20200;-48
2023/04/02 01:25:28;;;;;;;4.70;1.13;;;;;;;1.26;88.13;101668.50;5056736;28;20282;-45
2023/04/02 01:28:08;;;;;;;3.70;0.85;;;;;;;1.29;88.01;101680.84;5057623;28;20398;-46
2023/04/02 01:30:35;;;;;;;2.38;0.60;;;;;;;1.36;87.97;101682.75;5053268;28;20183;-46
2023/04/02 01:33:02;;;;;;;1.45;0.70;;;;;;;1.35;87.91;101686.22;5056289;28;20604;-46
2023/04/02 01:35:32;;;;;;;2.22;0.50;;;;;;;1.26;87.85;101694.03;5052542;28;20669;-45
2023/04/02 01:38:12;;;;;;;1.83;0.55;;;;;;;1.25;88.10;101685.22;5050569;28;20167;-47
2023/04/02 01:41:02;;;;;;;3.30;0.70;;;;;;;1.35;87.52;101688.88;5052819;28;20197;-45
2023/04/02 01:43:35;;;;;;;2.92;0.65;;;;;;;1.37;87.66;101701.22;5052835;28;20710;-46
2023/04/02 01:46:27;;;;;;;3.08;0.75;;;;;;;1.30;87.63;101703.78;5050019;28;20198;-48
2023/04/02 01:48:56;;;;;;;2.55;0.60;;;;;;;1.26;87.37;101707.22;5041364;28;20199;-47
2023/04/02 01:51:27;;;;;;;0.55;0.40;;;;;;;1.29;87.38;101720.47;5060742;28;20661;-49
2023/04/02 01:57:34;;;;;;;1.88;0.32;;;;;;;1.20;87.62;101719.47;5043636;28;20201;-47
2023/04/02 02:00:06;;;;;;;2.78;0.50;;;;;;;1.22;87.78;101725.69;5053847;28;20179;-46
2023/04/02 02:02:39;;;;;;;0.90;0.40;;;;;;;1.22;87.78;101719.47;5059088;28;20240;-48
2023/04/02 02:05:18;;;;;;;3.75;0.50;;;;;;;1.26;87.84;101729.22;5050426;28;20240;-47
2023/04/02 02:07:46;;;;;;;2.83;1.08;;;;;;;1.26;87.64;101731.00;5050525;28;20215;-47
2023/04/02 02:10:22;;;;;;;2.47;0.60;;;;;;;1.26;87.61;101738.91;5054086;28;20657;-45
2023/04/02 02:12:47;;;;;;;3.33;0.60;;;;;;;1.30;87.67;101738.97;5054158;28;20190;-46
2023/04/02 02:15:16;;;;;;;2.28;0.50;;;;;;;1.26;87.35;101733.63;5052272;28;20171;-48
2023/04/02 02:17:43;;;;;;;2.75;0.70;;;;;;;1.22;87.23;101743.25;5061701;28;20202;-44
2023/04/02 02:20:11;;;;;;;1.65;0.85;;;;;;;1.24;87.31;101747.66;5069931;28;20577;-47
2023/04/02 02:22:39;;;;;;;1.45;0.40;;;;;;;1.20;87.07;101750.25;5067694;28;20654;-44
2023/04/02 02:25:12;;;;;;;4.15;0.70;;;;;;;1.17;86.80;101753.72;5068508;28;20163;-49
2023/04/02 02:27:46;;;;;;;1.10;0.60;;;;;;;1.18;86.94;101752.88;5068519;28;20195;-45
2023/04/02 02:30:31;;;;;;;1.13;0.40;;;;;;;1.21;86.72;101747.63;5068203;28;20703;-44
2023/04/02 02:33:22;;;;;;;1.58;0.47;;;;;;;1.15;86.49;101767.78;5068710;28;20159;-45
2023/04/02 02:35:59;;;;;;;3.03;0.68;;;;;;;1.19;86.48;101764.31;5068335;28;20198;-46
2023/04/02 02:38:47;;;;;;;1.48;0.57;;;;;;;1.15;86.40;101759.84;5068354;28;20158;-44
2023/04/02 02:41:40;;;;;;;1.10;0.40;;;;;;;1.15;86.41;101780.97;5068387;28;20174;-49
2023/04/02 02:44:09;;;;;;;3.13;0.60;;;;;;;1.16;86.68;101781.00;5068261;28;20174;-45
2023/04/02 02:46:47;;;;;;;0.50;0.50;;;;;;;1.10;86.76;101775.63;5068295;28;20297;-45
2023/04/02 02:49:19;;;;;;;0.93;0.35;;;;;;;1.05;87.10;101786.97;5068110;28;20163;-49
2023/04/02 02:52:07;;;;;;;3.50;0.60;;;;;;;1.09;86.96;101779.09;5067872;28;20182;-41
2023/04/02 02:54:46;;;;;;;1.05;0.30;;;;;;;1.11;86.97;101793.22;5047537;28;20183;-49
2023/04/02 02:57:18;;;;;;;2.65;0.63;;;;;;;1.10;86.91;101788.81;5053159;28;20209;-48
2023/04/02 02:59:46;;;;;;;1.13;0.50;;;;;;;1.10;86.83;101809.06;5056423;28;20270;-48
2023/04/02 03:02:13;;;;;;;1.25;0.35;;;;;;;1.12;86.66;101805.56;5056996;28;20211;-50
2023/04/02 03:04:39;;;;;;;2.53;0.50;;;;;;;1.17;86.47;101813.56;5051120;28;20195;-50
2023/04/02 03:07:15;;;;;;;0.57;0.35;;;;;;;1.10;86.74;101812.56;5057927;28;20225;-47
2023/04/02 03:09:52;;;;;;;2.08;0.63;;;;;;;1.06;86.74;101815.13;5049041;28;20179;-47
2023/04/02 03:12:37;;;;;;;2.35;0.70;;;;;;;1.11;86.54;101827.53;5045799;28;20449;-48
2023/04/02 03:15:31;;;;;;;1.30;0.32;;;;;;;1.04;86.52;101836.22;5052544;28;20548;-48
2023/04/02 03:18:24;;;;;;;3.80;0.45;;;;;;;1.05;86.77;101835.38;5063829;28;20666;-42
2023/04/02 03:21:09;;;;;;;2.53;0.55;;;;;;;1.08;86.17;101834.53;5038871;28;20180;-42
2023/04/02 03:24:07;;;;;;;1.70;0.50;;;;;;;0.99;86.27;101835.25;5038749;28;20668;-43
2023/04/02 03:26:48;;;;;;;1.83;0.80;;;;;;;1.08;86.35;101845.09;5057812;28;20206;-44
2023/04/02 03:29:23;;;;;;;0.70;0.60;;;;;;;1.20;86.35;101840.91;5053899;28;20183;-47
2023/04/02 03:31:56;;;;;;;1.05;0.30;;;;;;;1.20;85.90;101842.63;5049857;28;20171;-47
2023/04/02 03:34:35;;;;;;;1.00;0.32;;;;;;;1.16;85.91;101860.19;5058310;28;20193;-47
2023/04/02 03:37:33;;;;;;;1.15;0.40;;;;;;;1.13;85.80;101859.25;5067709;28;20210;-48
2023/04/02 03:40:03;;;;;;;0.63;0.35;;;;;;;1.04;85.72;101875.78;5047233;28;20199;-49
2023/04/02 03:42:39;;;;;;;1.33;0.40;;;;;;;1.16;85.59;101868.09;5040228;28;20195;-49
2023/04/02 03:45:15;;;;;;;1.70;0.65;;;;;;;1.07;85.74;101878.47;5059636;28;20189;-48
2023/04/02 03:47:50;;;;;;;1.80;0.40;;;;;;;1.02;86.18;101873.13;5061112;28;20206;-47
2023/04/02 03:50:20;;;;;;;0.75;0.50;;;;;;;1.01;85.80;101888.94;5051242;28;20296;-49
2023/04/02 03:52:47;;;;;;;2.65;0.50;;;;;;;1.00;86.14;101889.78;5056779;28;20333;-47
2023/04/02 03:55:20;;;;;;;2.20;0.50;;;;;;;0.87;86.07;101893.06;5057338;28;20187;-48
2023/04/02 03:57:54;;;;;;;1.30;0.70;;;;;;;0.88;86.71;101900.16;5053473;28;20592;-47
2023/04/02 04:00:37;;;;;;;2.25;0.40;;;;;;;0.87;86.53;101906.25;5036713;28;20181;-49
2023/04/02 04:03:15;;;;;;;2.03;0.50;;;;;;;0.92;87.17;101915.13;5059998;28;20194;-47
2023/04/02 04:05:50;;;;;;;1.38;0.52;;;;;;;0.99;87.01;101923.22;5058099;28;20545;-49
2023/04/02 04:08:31;;;;;;;0.63;0.50;;;;;;;1.01;86.79;101931.19;5050351;28;20729;-48
2023/04/02 04:11:02;;;;;;;4.07;0.50;;;;;;;0.98;86.94;101939.94;5054033;28;20661;-48
2023/04/02 04:13:35;;;;;;;1.02;0.40;;;;;;;0.97;86.99;101946.03;5055068;28;20484;-47
2023/04/02 04:16:10;;;;;;;3.10;0.40;;;;;;;0.94;87.09;101945.09;5057998;28;20195;-48
2023/04/02 04:18:56;;;;;;;1.67;0.47;;;;;;;0.95;87.15;101955.69;5052795;28;20190;-48
2023/04/02 04:21:28;;;;;;;0.93;0.47;;;;;;;0.79;87.55;101959.78;5063160;28;20175;-47
2023/04/02 04:24:03;;;;;;;2.47;0.60;;;;;;;0.83;87.65;101963.34;5059866;28;20761;-48
2023/04/02 04:26:41;;;;;;;1.77;0.68;;;;;;;0.77;88.01;101968.53;5058558;28;20282;-49
2023/04/02 04:29:25;;;;;;;5.00;1.13;;;;;;;0.74;88.03;101977.22;5061642;28;20178;-46
2023/04/02 04:31:54;;;;;;;1.52;0.40;;;;;;;0.76;88.16;101977.28;5056861;28;20179;-47
2023/04/02 04:34:41;;;;;;;1.50;0.43;;;;;;;0.70;88.43;101980.69;5060224;28;20189;-48
2023/04/02 04:37:23;;;;;;;1.65;0.68;;;;;;;0.82;88.36;101996.75;5053956;28;20729;-49
2023/04/02 04:39:59;;;;;;;0.90;0.40;;;;;;;0.74;88.82;102002.72;5078259;28;20218;-47
2023/04/02 04:42:30;;;;;;;1.23;0.40;;;;;;;0.69;89.06;102005.28;5050009;28;20179;-44
2023/04/02 04:45:05;;;;;;;2.63;0.40;;;;;;;0.74;88.82;102014.16;5050707;28;20509;-47
2023/04/02 04:47:34;;;;;;;1.50;0.70;;;;;;;0.72;89.24;102013.28;5051207;28;20218;-46
2023/04/02 04:50:10;;;;;;;1.23;0.60;;;;;;;0.71;88.83;102011.47;5050973;28;20373;-44
2023/04/02 04:52:41;;;;;;;2.00;0.70;;;;;;;0.82;89.16;102020.50;5049529;28;20268;-43
2023/04/02 04:55:22;;;;;;;2.65;0.55;;;;;;;0.84;88.98;102019.66;5049448;28;20167;-48
2023/04/02 04:57:49;;;;;;;1.73;0.60;;;;;;;0.76;89.02;102007.16;5050863;28;20191;-45
2023/04/02 05:00:46;;;;;;;2.90;0.93;;;;;;;0.75;88.58;102012.44;5049478;28;20176;-46
2023/04/02 05:03:36;;;;;;;1.48;0.60;;;;;;;0.72;89.13;102021.19;5018711;28;20195;-45
2023/04/02 05:06:41;;;;;;;1.85;0.70;;;;;;;0.67;89.32;102036.00;5049655;28;20514;-44
2023/04/02 05:09:16;;;;;;;1.05;0.82;;;;;;;0.70;88.96;102035.16;5048983;28;20190;-45
2023/04/02 05:11:59;;;;;;;0.55;0.52;;;;;;;0.68;89.23;102044.78;5050719;28;20693;-46
2023/04/02 05:14:40;;;;;;;1.25;0.73;;;;;;;0.66;89.05;102047.41;5049434;28;20151;-44
2023/04/02 05:17:15;;;;;;;2.35;0.73;;;;;;;0.84;89.32;102059.22;5048831;28;20191;-45
2023/04/02 05:19:50;;;;;;;1.73;0.80;;;;;;;1.02;88.88;102065.75;5056429;28;20523;-45
2023/04/02 05:22:29;;;;;;;0.90;0.50;;;;;;;1.06;88.19;102079.03;5045626;28;20198;-46
2023/04/02 05:25:07;;;;;;;3.08;0.73;;;;;;;1.19;87.68;102052.03;5049050;28;20185;-45
2023/04/02 05:27:51;;;;;;;3.92;0.80;;;;;;;1.27;87.15;102061.00;5053457;28;20206;-47
2023/04/02 05:30:23;;;;;;;1.98;0.63;;;;;;;1.37;86.74;102067.34;5052679;28;20190;-44
2023/04/02 05:33:00;;;;;;;3.63;0.75;;;;;;;1.38;86.00;102050.66;5044012;28;20163;-46
2023/04/02 05:35:35;;;;;;;1.13;0.40;;;;;;;1.44;85.45;102066.59;5055211;28;20179;-45
2023/04/02 05:38:02;;;;;;;1.02;0.50;;;;;;;1.51;85.00;102065.88;5057365;28;20175;-47
2023/04/02 05:40:35;;;;;;;1.35;0.60;;;;;;;1.56;84.75;102065.97;5059514;28;20203;-45
2023/04/02 05:43:06;;;;;;;2.40;0.68;;;;;;;1.72;84.41;102067.13;5051275;28;20208;-46
2023/04/02 05:45:37;;;;;;;0.70;0.50;;;;;;;1.99;83.28;102062.34;5052310;28;20187;-45
2023/04/02 05:48:17;;;;;;;3.15;0.60;;;;;;;2.38;82.58;102060.28;5047277;28;20640;-46
2023/04/02 05:50:55;;;;;;;1.67;0.50;;;;;;;2.37;81.73;102059.41;5052588;28;20204;-45
2023/04/02 05:53:35;;;;;;;5.40;0.93;;;;;;;2.71;80.64;102057.22;5046567;28;20211;-45
2023/04/02 05:56:25;;;;;;;1.48;0.60;;;;;;;2.88;80.18;102055.69;5045750;28;20195;-43
2023/04/02 05:59:07;;;;;;;1.63;0.52;;;;;;;2.85;79.33;102053.03;5059001;28;20174;-43
2023/04/02 06:01:44;;;;;;;0.75;0.40;;;;;;;3.08;78.73;102055.06;5048080;28;20258;-42
2023/04/02 06:04:43;;;;;;;1.42;0.50;;;;;;;3.07;77.76;102053.31;5064562;28;20182;-42
2023/04/02 06:07:14;;;;;;;2.83;0.50;;;;;;;3.57;77.55;102068.91;5059935;28;20464;-43
2023/04/02 06:09:50;;;;;;;1.23;0.50;;;;;;;3.25;76.96;102063.22;5063039;28;20217;-43
2023/04/02 06:12:25;;;;;;;2.53;0.65;;;;;;;3.48;76.66;102050.25;5058171;28;20184;-42
2023/04/02 06:14:51;;;;;;;1.95;0.40;;;;;;;3.48;76.45;102052.91;5049320;28;20179;-43
2023/04/02 06:17:19;;;;;;;1.23;0.75;;;;;;;3.61;75.99;102061.88;5047750;28;20199;-41
2023/04/02 06:19:46;;;;;;;0.80;0.40;;;;;;;3.45;75.23;102056.38;5049598;28;20178;-43
2023/04/02 06:22:21;;;;;;;1.05;0.65;;;;;;;3.85;75.02;102063.88;5053915;28;20183;-43
2023/04/02 06:24:56;;;;;;;2.38;0.60;;;;;;;3.97;74.64;102058.66;5048645;28;20181;-43
2023/04/02 06:27:24;;;;;;;1.00;0.50;;;;;;;3.83;74.24;102052.38;5050388;28;20218;-41
2023/04/02 06:29:56;;;;;;;4.40;0.50;;;;;;;3.68;73.23;102054.00;5048245;28;20236;-42
2023/04/02 06:32:25;;;;;;;1.83;0.60;;;;;;;4.33;73.87;102062.50;5064266;28;20170;-44
2023/04/02 06:34:52;;;;;;;2.65;0.60;;;;;;;4.19;72.60;102056.19;5068207;28;20163;-43
2023/04/02 06:37:26;;;;;;;1.00;0.40;;;;;;;3.98;73.00;102062.19;5069655;28;20630;-44
2023/04/02 06:40:00;;;;;;;1.80;0.60;;;;;;;4.33;72.38;102067.81;5068549;28;20242;-43
2023/04/02 06:42:39;;;;;;;3.33;0.95;;;;;;;3.81;71.90;102070.03;5068001;28;20175;-44
2023/04/02 06:45:29;;;;;;;1.90;0.50;;;;;;;4.04;71.97;102079.06;5069477;28;20269;-42
2023/04/02 06:48:25;;;;;;;1.58;0.60;;;;;;;4.11;71.48;102080.00;5068229;28;20550;-43
2023/04/02 06:51:05;;;;;;;1.20;0.43;;;;;;;4.00;71.02;102081.66;5068174;28;20556;-44
2023/04/02 06:53:33;;;;;;;2.28;0.50;;;;;;;3.93;71.34;102072.78;5067825;28;20395;-47
2023/04/02 06:56:30;;;;;;;3.85;0.60;;;;;;;4.11;70.67;102078.25;5067667;28;20863;-42
2023/04/02 06:58:57;;;;;;;0.98;0.57;;;;;;;3.97;70.58;102084.31;5067744;28;20209;-46
2023/04/02 07:01:28;;;;;;;3.05;0.75;;;;;;;4.40;71.06;102093.50;5067664;28;20596;-45
2023/04/02 07:03:54;;;;;;;1.17;0.50;;;;;;;4.30;71.18;102107.56;5069658;28;20155;-42
2023/04/02 07:06:26;;;;;;;3.10;0.70;;;;;;;4.22;70.47;102094.25;5068136;28;20289;-41
2023/04/02 07:08:55;;;;;;;1.65;0.40;;;;;;;4.33;70.78;102108.50;5060427;28;20695;-43
2023/04/02 07:11:22;;;;;;;1.77;0.50;;;;;;;4.68;70.63;102112.28;5054396;28;20188;-45
2023/04/02 07:13:50;;;;;;;0.95;0.50;;;;;;;4.81;69.67;102106.19;5056503;28;20180;-47
2023/04/02 07:16:20;;;;;;;2.03;0.70;;;;;;;4.36;69.38;102110.28;5063222;28;20239;-47
2023/04/02 07:18:46;;;;;;;1.35;0.60;;;;;;;4.41;69.59;102129.78;5054680;28;20194;-44
2023/04/02 07:21:11;;;;;;;2.45;0.57;;;;;;;4.61;69.27;102116.66;5055246;28;20168;-42
2023/04/02 07:23:37;;;;;;;1.13;0.47;;;;;;;4.77;69.29;102120.31;5056181;28;20182;-44
2023/04/02 07:26:05;;;;;;;2.58;0.60;;;;;;;4.93;68.44;102118.63;5058600;28;20214;-46
2023/04/02 07:28:30;;;;;;;1.05;0.70;;;;;;;4.67;68.49;102116.69;5057385;28;20274;-41
2023/04/02 07:30:56;;;;;;;1.45;0.50;;;;;;;5.12;68.39;102115.19;5059229;28;20273;-42
2023/04/02 07:33:24;;;;;;;1.63;0.60;;;;;;;5.37;68.20;102126.81;5054896;28;20554;-48
2023/04/02 07:35:51;;;;;;;1.23;0.60;;;;;;;5.06;67.86;102130.22;5055630;28;20286;-45
2023/04/02 07:38:17;;;;;;;2.42;0.70;;;;;;;5.34;67.53;102133.91;5059162;28;20179;-42
2023/04/02 07:40:42;;;;;;;3.40;0.60;;;;;;;4.88;67.69;102133.66;5060641;28;20189;-45
2023/04/02 07:43:08;;;;;;;1.60;0.50;;;;;;;5.11;67.85;102144.41;5062688;28;20635;-44
2023/04/02 07:45:34;;;;;;;2.38;0.60;;;;;;;5.00;68.01;102147.00;5054606;28;20178;-44
2023/04/02 07:48:18;;;;;;;2.47;0.52;;;;;;;4.68;68.06;102154.75;5050591;28;20195;-47
2023/04/02 07:50:43;;;;;;;0.90;0.50;;;;;;;4.89;68.29;102154.03;5050091;28;20305;-45
2023/04/02 07:53:38;;;;;;;2.53;0.50;;;;;;;4.73;68.06;102151.25;5050817;28;20574;-43
2023/04/02 07:56:06;;;;;;;0.95;0.50;;;;;;;4.95;68.09;102154.94;5049583;28;20215;-45
2023/04/02 07:58:32;;;;;;;2.17;0.40;;;;;;;4.96;67.90;102163.78;5049558;28;20210;-43
2023/04/02 08:01:00;;;;;;;1.92;1.05;;;;;;;4.79;67.91;102162.78;5048372;28;20302;-45
2023/04/02 08:03:26;;;;;;;1.80;0.40;;;;;;;5.14;68.37;102177.22;5051309;28;20164;-44
2023/04/02 08:05:55;;;;;;;1.08;0.60;;;;;;;5.51;67.62;102180.06;5050347;28;20465;-43
2023/04/02 08:08:22;;;;;;;1.75;0.68;;;;;;;5.02;67.54;102162.97;5050123;28;20493;-44
2023/04/02 08:10:48;;;;;;;1.73;0.70;;;;;;;4.69;68.22;102167.16;5049984;28;20174;-43
2023/04/02 08:13:15;;;;;;;1.33;0.75;;;;;;;5.23;68.55;102200.28;5051836;28;20181;-44
2023/04/02 08:15:41;;;;;;;2.28;0.68;;;;;;;5.27;68.81;102191.47;5051740;28;20195;-44
2023/04/02 08:18:07;;;;;;;1.02;0.70;;;;;;;5.83;67.78;102200.56;5051608;28;20235;-42
2023/04/02 08:20:33;;;;;;;2.00;0.77;;;;;;;6.09;67.12;102203.31;5051017;28;20254;-43
2023/04/02 08:22:59;;;;;;;0.98;0.50;;;;;;;5.00;66.63;102180.66;5059198;28;20179;-42
2023/04/02 08:25:26;;;;;;;2.78;0.77;;;;;;;5.02;67.43;102197.50;5058990;28;20171;-43
2023/04/02 08:27:52;;;;;;;1.00;0.40;;;;;;;5.22;67.62;102208.25;5055962;28;20217;-43
2023/04/02 08:30:18;;;;;;;1.15;0.65;;;;;;;4.97;67.45;102208.09;5054052;28;20191;-43
2023/04/02 08:32:44;;;;;;;1.65;0.73;;;;;;;5.07;67.82;102230.28;5066348;28;20211;-42
2023/04/02 08:35:13;;;;;;;1.45;0.70;;;;;;;5.71;68.18;102233.31;5051445;28;20229;-41
2023/04/02 08:37:40;;;;;;;1.15;0.68;;;;;;;5.32;68.26;102232.22;5051402;28;20245;-42
2023/04/02 08:40:07;;;;;;;0.50;0.40;;;;;;;5.99;68.61;102246.75;5059710;28;20698;-43
2023/04/02 08:42:51;;;;;;;3.30;0.60;;;;;;;5.63;67.78;102240.38;5064874;28;20198;-42
2023/04/02 08:45:22;;;;;;;2.13;0.70;;;;;;;5.03;68.58;102239.09;5051437;28;20175;-41
2023/04/02 08:47:50;;;;;;;1.23;0.70;;;;;;;5.61;68.57;102250.09;5050770;28;20218;-41
2023/04/02 08:50:30;;;;;;;2.78;0.68;;;;;;;5.87;67.83;102247.56;5051593;28;20220;-45
2023/04/02 08:52:57;;;;;;;1.50;0.70;;;;;;;5.85;67.56;102261.75;5050958;28;20183;-43
2023/04/02 08:55:41;;;;;;;2.78;0.57;;;;;;;5.41;67.73;102257.97;5050849;28;20174;-42
2023/04/02 08:58:24;;;;;;;0.63;0.50;;;;;;;4.88;67.93;102262.03;5048528;28;20499;-43
2023/04/02 09:00:56;;;;;;;1.27;0.70;;;;;;;5.75;69.29;102277.66;5069455;28;20257;-43
2023/04/02 09:03:40;;;;;;;2.13;0.80;;;;;;;5.38;68.30;102281.88;5045614;28;20564;-43
2023/04/02 09:06:11;;;;;;;2.83;0.80;;;;;;;5.49;68.10;102279.28;5058736;28;20568;-42
2023/04/02 09:08:38;;;;;;;2.08;0.70;;;;;;;6.22;68.51;102293.84;5052419;28;20188;-42
2023/04/02 09:11:19;;;;;;;2.97;0.70;;;;;;;6.23;66.94;102274.31;5057307;28;20198;-43
2023/04/02 09:13:46;;;;;;;1.70;0.57;;;;;;;5.50;66.96;102273.97;5060982;28;20182;-43
2023/04/02 09:16:21;;;;;;;2.28;0.70;;;;;;;5.57;66.22;102281.13;5070391;28;20190;-42
2023/04/02 09:18:49;;;;;;;1.10;0.70;;;;;;;5.55;66.84;102285.53;5057640;28;20178;-45
2023/04/02 09:21:22;;;;;;;1.58;0.70;;;;;;;5.20;66.44;102277.28;5052101;28;20178;-44
2023/04/02 09:23:48;;;;;;;1.65;0.77;;;;;;;5.30;66.17;102295.09;5057530;28;20981;-45
2023/04/02 09:26:32;;;;;;;2.28;1.00;;;;;;;5.35;66.29;102287.16;5055052;28;20213;-48
2023/04/02 09:29:12;;;;;;;1.55;0.50;;;;;;;5.48;65.98;102282.81;5050009;28;20190;-43
2023/04/02 09:31:42;;;;;;;1.02;0.75;;;;;;;5.44;66.60;102296.97;5063237;28;20261;-45
2023/04/02 09:34:34;;;;;;;3.28;0.90;;;;;;;5.60;68.61;102304.16;5057921;28;20283;-44
2023/04/02 09:37:24;;;;;;;2.03;0.82;;;;;;;5.30;68.29;102311.03;5051971;28;20260;-42
2023/04/02 09:39:50;;;;;;;1.60;0.70;;;;;;;5.00;67.67;102321.41;5051702;28;20175;-44
2023/04/02 09:42:37;;;;;;;0.60;0.60;;;;;;;5.15;68.41;102318.91;5055376;28;20183;-43
2023/04/02 09:45:23;;;;;;;1.05;0.90;;;;;;;5.11;68.33;102331.25;5057141;28;20189;-43
2023/04/02 09:47:50;;;;;;;2.08;0.60;;;;;;;4.86;67.74;102323.97;5048952;28;20217;-43
2023/04/02 09:50:26;;;;;;;1.38;0.57;;;;;;;5.30;67.73;102339.38;5055095;28;20174;-44
2023/04/02 09:52:52;;;;;;;2.30;0.50;;;;;;;5.08;68.14;102333.00;5054098;28;20199;-45
2023/04/02 09:55:27;;;;;;;1.20;0.55;;;;;;;5.06;69.64;102372.84;5055611;28;20217;-43
2023/04/02 09:58:25;;;;;;;1.08;0.80;;;;;;;4.67;70.73;102363.59;5059679;28;20289;-49
2023/04/02 10:00:52;;;;;;;1.85;0.82;;;;;;;5.57;71.97;102394.53;5014427;28;20233;-48
2023/04/02 10:03:21;;;;;;;2.42;0.73;;;;;;;5.71;71.49;102395.53;5056358;28;20183;-45
2023/04/02 10:05:48;;;;;;;0.55;0.50;;;;;;;5.26;70.72;102390.72;5054787;28;21268;-44
2023/04/02 10:08:26;;;;;;;1.73;1.20;;;;;;;5.21;71.07;102389.81;5057617;28;20190;-47
2023/04/02 10:10:56;;;;;;;2.58;0.85;;;;;;;5.91;71.99;102411.63;5056283;28;20312;-46
2023/04/02 10:13:30;;;;;;;3.17;1.23;;;;;;;4.97;71.10;102411.72;5058296;28;20163;-42
2023/04/02 10:16:16;;;;;;;2.08;0.85;;;;;;;5.10;71.78;102426.91;5049889;28;20203;-44
2023/04/02 10:19:01;;;;;;;2.55;0.90;;;;;;;5.09;72.07;102423.31;5052916;28;20171;-44
2023/04/02 10:21:34;;;;;;;2.72;1.00;;;;;;;5.86;72.71;102420.44;5054439;28;20186;-45
2023/04/02 10:24:01;;;;;;;1.70;0.90;;;;;;;5.56;72.25;102437.94;5052890;28;20284;-46
2023/04/02 10:26:40;;;;;;;3.13;0.90;;;;;;;5.05;72.26;102432.16;5050396;28;20261;-45
2023/04/02 10:29:19;;;;;;;1.88;0.90;;;;;;;4.54;72.32;102436.88;5061393;28;20537;-44
2023/04/02 10:31:58;;;;;;;1.52;0.82;;;;;;;4.88;73.00;102441.72;5058798;28;20255;-44
2023/04/02 10:34:46;;;;;;;2.53;0.90;;;;;;;4.59;73.22;102449.31;5053151;28;20225;-47
2023/04/02 10:37:14;;;;;;;2.33;0.90;;;;;;;5.19;72.88;102453.56;5052064;28;20198;-45
2023/04/02 10:39:46;;;;;;;3.38;0.80;;;;;;;5.12;71.99;102451.72;5056494;28;20182;-47
2023/04/02 10:42:35;;;;;;;2.90;0.95;;;;;;;5.06;72.06;102464.94;5057387;28;20167;-44
2023/04/02 10:45:16;;;;;;;2.95;1.55;;;;;;;5.30;72.31;102456.31;5053224;28;20252;-45
2023/04/02 10:47:53;;;;;;;2.72;1.00;;;;;;;5.11;72.19;102469.41;5063605;28;20300;-46
2023/04/02 10:50:31;;;;;;;1.05;0.85;;;;;;;5.35;72.23;102460.78;5058656;28;20205;-47
2023/04/02 10:53:15;;;;;;;3.15;1.20;;;;;;;5.70;72.08;102470.84;5048259;28;20250;-49
2023/04/02 10:55:45;;;;;;;1.63;0.65;;;;;;;5.64;72.38;102477.88;5056208;28;20191;-48
2023/04/02 10:58:23;;;;;;;4.57;1.75;;;;;;;5.71;71.70;102472.66;5062810;28;20172;-48
2023/04/02 11:00:51;;;;;;;3.47;1.20;;;;;;;6.04;71.13;102481.81;5056535;28;20186;-49
2023/04/02 11:03:25;;;;;;;4.25;1.55;;;;;;;5.95;71.37;102479.97;5053628;28;20258;-48
2023/04/02 11:05:56;;;;;;;4.22;0.90;;;;;;;5.46;70.50;102471.53;5060768;28;20281;-47
2023/04/02 11:08:26;;;;;;;1.65;1.02;;;;;;;5.25;71.41;102474.88;5055966;28;20199;-48
2023/04/02 11:11:00;;;;;;;3.65;2.13;;;;;;;5.39;71.11;102467.03;5057025;28;20193;-46
2023/04/02 11:13:32;;;;;;;2.60;0.90;;;;;;;5.78;71.85;102487.78;5052812;28;20191;-48
2023/04/02 11:15:58;;;;;;;8.40;1.48;;;;;;;6.05;71.92;102490.66;5063987;28;20210;-49
2023/04/02 11:18:26;;;;;;;2.63;1.08;;;;;;;5.89;71.69;102486.97;5059983;28;20263;-48
2023/04/02 11:20:57;;;;;;;2.13;0.93;;;;;;;5.78;71.82;102492.19;5054162;28;20591;-48
2023/04/02 11:23:27;;;;;;;3.20;1.15;;;;;;;5.83;71.91;102494.91;5053522;28;20297;-47
2023/04/02 11:26:32;;;;;;;2.60;1.00;;;;;;;5.43;71.68;102505.19;5057125;28;20256;-47
2023/04/02 11:29:07;;;;;;;6.18;2.40;;;;;;;5.38;72.05;102502.47;5059366;28;20195;-49
2023/04/02 11:31:33;;;;;;;3.33;1.33;;;;;;;5.89;71.71;102508.25;5052635;28;20167;-48
2023/04/02 11:33:59;;;;;;;4.00;0.98;;;;;;;5.62;71.67;102512.47;5052317;28;20198;-47
2023/04/02 11:36:49;;;;;;;2.40;1.00;;;;;;;5.96;71.67;102518.09;5061046;28;20202;-49
2023/04/02 11:39:55;;;;;;;3.20;1.13;;;;;;;6.64;71.64;102521.22;5055347;28;20183;-47
2023/04/02 11:42:32;;;;;;;3.15;1.10;;;;;;;5.77;70.98;102517.91;5055966;28;20236;-47
2023/04/02 11:45:01;;;;;;;3.08;1.13;;;;;;;5.11;71.32;102513.69;5058467;28;20207;-47
2023/04/02 11:47:28;;;;;;;1.63;1.20;;;;;;;5.20;71.58;102512.91;5065259;28;20187;-46
2023/04/02 11:49:54;;;;;;;1.95;1.00;;;;;;;5.46;71.76;102529.13;5052923;28;20213;-48
2023/04/02 11:52:23;;;;;;;2.17;1.27;;;;;;;5.44;71.02;102523.78;5054591;28;20597;-50
2023/04/02 11:55:00;;;;;;;2.13;1.00;;;;;;;5.37;71.20;102521.94;5055271;28;20167;-49
2023/04/02 11:57:36;;;;;;;1.42;0.80;;;;;;;5.49;71.02;102523.84;5056526;28;20540;-47
2023/04/02 12:00:39;;;;;;;2.20;1.25;;;;;;;5.44;71.33;102538.84;5053127;28;20175;-49
2023/04/02 12:03:34;;;;;;;1.42;0.82;;;;;;;5.00;70.96;102537.47;5057973;28;20264;-47
2023/04/02 12:06:25;;;;;;;2.95;1.30;;;;;;;5.08;69.89;102526.94;5060310;28;20282;-48
2023/04/02 12:08:54;;;;;;;1.98;0.88;;;;;;;5.08;70.24;102529.59;5052955;28;20194;-46
2023/04/02 12:11:31;;;;;;;0.77;0.75;;;;;;;5.48;69.82;102532.69;5061952;28;20167;-47
2023/04/02 12:13:57;;;;;;;2.65;1.20;;;;;;;5.47;69.75;102546.88;5060375;28;20186;-45
2023/04/02 12:16:28;;;;;;;1.27;1.10;;;;;;;5.03;69.18;102531.28;5055521;28;20207;-46